Time;durP1;ratioP1;P1;durP2;ratioP2;P2;SDS_P1;SDS_P2;PMS_P1;PMS_P2;Temp;Humidity;BMP_temperature;BMP_pressure;BME280_temperature;BME280_humidity;BME280_pressure;Samples;Min_cycle;Max_cycle;Signal;HPM_P1;HPM_P2
2023/12/30 00:02:21;;;;;;;12.70;3.63;;;11.30;99.90;;;;;;5049903;28;20037;-76
2023/12/30 00:04:47;;;;;;;15.82;3.10;;;12.10;99.90;;;;;;5032343;28;20732;-71
2023/12/30 00:07:13;;;;;;;13.48;3.03;;;11.30;99.90;;;;;;5052439;28;20425;-71
2023/12/30 00:09:40;;;;;;;11.82;3.28;;;12.20;99.90;;;;;;5048446;28;20398;-75
2023/12/30 00:12:05;;;;;;;12.98;2.97;;;11.40;99.90;;;;;;5049827;28;20045;-76
2023/12/30 00:14:31;;;;;;;12.40;2.70;;;12.00;99.90;;;;;;5050575;28;20547;-73
2023/12/30 00:16:57;;;;;;;10.13;2.88;;;10.90;99.90;;;;;;5032824;28;20093;-72
2023/12/30 00:19:22;;;;;;;13.90;3.47;;;12.00;99.90;;;;;;5056314;28;20075;-76
2023/12/30 00:21:48;;;;;;;11.05;2.65;;;11.00;99.90;;;;;;5049256;28;20049;-75
2023/12/30 00:24:13;;;;;;;13.93;3.20;;;11.20;99.90;;;;;;5031955;28;20524;-70
2023/12/30 00:26:39;;;;;;;11.35;2.55;;;11.80;99.90;;;;;;5047776;28;20045;-72
2023/12/30 00:29:05;;;;;;;14.65;2.92;;;11.70;1.00;;;;;;5070576;28;20048;-70
2023/12/30 00:31:31;;;;;;;8.50;2.60;;;11.90;99.90;;;;;;5027722;28;20371;-72
2023/12/30 00:33:58;;;;;;;11.05;2.85;;;11.80;99.90;;;;;;5055649;28;20051;-71
2023/12/30 00:36:27;;;;;;;10.07;2.50;;;11.90;99.90;;;;;;5047595;28;20036;-73
2023/12/30 00:38:54;;;;;;;15.10;2.33;;;11.90;99.90;;;;;;5048165;28;20114;-73
2023/12/30 00:41:21;;;;;;;11.23;2.40;;;11.30;99.90;;;;;;5042265;28;20161;-77
2023/12/30 00:43:47;;;;;;;11.25;2.72;;;11.00;99.90;;;;;;5046959;28;20041;-74
2023/12/30 00:46:13;;;;;;;14.30;2.78;;;11.80;99.90;;;;;;5057079;28;20041;-72
2023/12/30 00:48:39;;;;;;;10.75;2.83;;;10.80;99.90;;;;;;5047895;28;20503;-71
2023/12/30 00:51:04;;;;;;;11.07;2.50;;;10.60;99.90;;;;;;5049491;28;20501;-72
2023/12/30 00:53:31;;;;;;;12.57;2.50;;;11.20;99.90;;;;;;5030613;28;20393;-74
2023/12/30 00:55:57;;;;;;;10.70;2.42;;;10.80;99.90;;;;;;5030340;28;20043;-73
2023/12/30 00:58:23;;;;;;;9.15;2.35;;;11.60;99.90;;;;;;5049324;28;20033;-71
2023/12/30 01:00:50;;;;;;;10.10;2.75;;;11.50;99.90;;;;;;5033126;28;20056;-73
2023/12/30 01:03:16;;;;;;;6.32;2.08;;;10.90;99.90;;;;;;5048547;28;20617;-73
2023/12/30 01:05:45;;;;;;;8.48;2.58;;;11.30;99.90;;;;;;5056617;28;20047;-71
2023/12/30 01:08:11;;;;;;;9.65;2.63;;;11.40;99.90;;;;;;5030768;28;20032;-74
2023/12/30 01:10:38;;;;;;;9.82;2.53;;;11.20;99.90;;;;;;5028887;28;20117;-72
2023/12/30 01:13:05;;;;;;;14.18;3.35;;;11.00;99.90;;;;;;5057112;28;20122;-72
2023/12/30 01:15:31;;;;;;;10.50;2.50;;;10.40;99.90;;;;;;5048322;28;20051;-72
2023/12/30 01:17:57;;;;;;;12.05;2.78;;;10.30;99.90;;;;;;5046779;28;20068;-71
2023/12/30 01:20:23;;;;;;;8.77;2.60;;;11.20;99.90;;;;;;5044098;28;20079;-74
2023/12/30 01:22:48;;;;;;;10.02;2.50;;;11.10;99.90;;;;;;5008828;28;20567;-75
2023/12/30 01:25:14;;;;;;;11.18;3.05;;;11.10;99.90;;;;;;5013442;28;20063;-71
2023/12/30 01:27:40;;;;;;;8.80;2.40;;;10.30;99.90;;;;;;5031665;28;20132;-72
2023/12/30 01:30:07;;;;;;;13.20;2.33;;;10.60;99.90;;;;;;5047026;28;20051;-71
2023/12/30 01:32:32;;;;;;;10.43;2.20;;;10.90;99.90;;;;;;5029801;28;20056;-75
2023/12/30 01:34:58;;;;;;;10.77;2.63;;;10.40;99.90;;;;;;5048463;28;20041;-73
2023/12/30 01:37:23;;;;;;;6.18;2.15;;;10.20;99.90;;;;;;5048329;28;20033;-71
2023/12/30 01:39:49;;;;;;;11.50;2.42;;;11.20;99.90;;;;;;5031188;28;20052;-74
2023/12/30 01:42:15;;;;;;;12.95;2.85;;;10.40;99.90;;;;;;5057288;28;20044;-72
2023/12/30 01:44:41;;;;;;;8.70;2.70;;;10.50;99.90;;;;;;5055760;28;20118;-72
2023/12/30 01:47:07;;;;;;;9.10;2.33;;;10.50;99.90;;;;;;5045582;28;20037;-71
2023/12/30 01:49:33;;;;;;;13.70;2.80;;;11.00;99.90;;;;;;5045024;28;20033;-72
2023/12/30 01:51:59;;;;;;;10.25;2.15;;;11.20;99.90;;;;;;5067356;28;20042;-72
2023/12/30 01:54:25;;;;;;;10.70;2.17;;;10.50;99.90;;;;;;5031985;28;20063;-71
2023/12/30 01:56:51;;;;;;;10.95;2.33;;;10.60;99.90;;;;;;5046524;28;20486;-71
2023/12/30 01:59:18;;;;;;;10.57;2.70;;;10.70;99.90;;;;;;5069684;28;20124;-75
2023/12/30 02:01:45;;;;;;;9.80;2.63;;;10.30;99.90;;;;;;5044082;28;20048;-74
2023/12/30 02:04:11;;;;;;;10.93;2.33;;;10.90;99.90;;;;;;5045678;28;20124;-71
2023/12/30 02:06:39;;;;;;;8.13;2.20;;;11.30;99.90;;;;;;5045802;28;20473;-73
2023/12/30 02:09:05;;;;;;;8.77;1.95;;;11.30;99.90;;;;;;5044038;28;20496;-71
2023/12/30 02:11:31;;;;;;;12.68;2.70;;;11.30;99.90;;;;;;5046277;28;20055;-71
2023/12/30 02:13:57;;;;;;;10.52;2.67;;;11.20;99.90;;;;;;5046674;28;20098;-73
2023/12/30 02:16:23;;;;;;;9.10;2.42;;;11.20;99.90;;;;;;5046448;28;20029;-71
2023/12/30 02:18:48;;;;;;;12.23;2.53;;;10.40;99.90;;;;;;5048151;28;20072;-73
2023/12/30 02:21:14;;;;;;;15.40;2.83;;;10.90;99.90;;;;;;5045971;28;20056;-77
2023/12/30 02:23:40;;;;;;;9.75;2.30;;;10.50;99.90;;;;;;5048153;28;21719;-75
2023/12/30 02:26:07;;;;;;;9.75;2.38;;;10.90;99.90;;;;;;5034298;28;20048;-69
2023/12/30 02:28:33;;;;;;;14.25;2.65;;;10.50;99.90;;;;;;5052772;28;20071;-72
2023/12/30 02:30:59;;;;;;;11.43;2.22;;;11.40;99.90;;;;;;5049703;28;20045;-72
2023/12/30 02:33:24;;;;;;;9.50;2.53;;;11.40;99.90;;;;;;5061510;28;20425;-76
2023/12/30 02:35:50;;;;;;;10.05;2.20;;;11.20;99.90;;;;;;5031381;28;20040;-76
2023/12/30 02:38:16;;;;;;;12.05;2.50;;;11.60;99.90;;;;;;5051539;28;20041;-71
2023/12/30 02:40:42;;;;;;;11.95;2.20;;;10.80;56.70;;;;;;5061506;28;20135;-74
2023/12/30 02:43:08;;;;;;;12.45;2.67;;;11.40;92.40;;;;;;5047937;28;20119;-71
2023/12/30 02:45:33;;;;;;;10.77;2.92;;;10.90;99.90;;;;;;5051218;28;20033;-73
2023/12/30 02:47:59;;;;;;;12.52;2.25;;;10.90;70.40;;;;;;5054451;28;20033;-72
2023/12/30 02:50:25;;;;;;;7.70;1.90;;;11.80;53.80;;;;;;5058040;28;20072;-73
2023/12/30 02:52:51;;;;;;;9.15;2.50;;;11.90;76.30;;;;;;5048431;28;20053;-72
2023/12/30 02:55:16;;;;;;;6.70;2.22;;;11.90;57.10;;;;;;5047578;28;20738;-73
2023/12/30 02:57:42;;;;;;;11.15;2.67;;;11.90;8.60;;;;;;5048769;28;20044;-73
2023/12/30 03:00:08;;;;;;;8.75;2.30;;;11.10;20.00;;;;;;5047837;28;20039;-76
2023/12/30 03:02:34;;;;;;;9.57;2.22;;;11.90;1.00;;;;;;5015045;28;20104;-75
2023/12/30 03:04:59;;;;;;;12.73;2.72;;;11.30;1.00;;;;;;5057569;28;20040;-77
2023/12/30 03:07:26;;;;;;;10.63;2.42;;;11.20;7.00;;;;;;5033342;28;20499;-71
2023/12/30 03:09:51;;;;;;;7.20;2.15;;;11.90;1.00;;;;;;5049899;28;20132;-76
2023/12/30 03:12:17;;;;;;;9.30;2.45;;;11.40;1.00;;;;;;5029193;28;20590;-75
2023/12/30 03:14:43;;;;;;;9.57;2.55;;;11.10;1.00;;;;;;5050318;28;20078;-76
2023/12/30 03:17:09;;;;;;;12.40;2.60;;;11.00;1.00;;;;;;5017278;28;20037;-73
2023/12/30 03:19:35;;;;;;;12.35;2.83;;;11.20;1.00;;;;;;5033957;28;20101;-77
2023/12/30 03:22:01;;;;;;;10.43;3.17;;;11.10;1.00;;;;;;5035380;28;20131;-73
2023/12/30 03:24:26;;;;;;;10.55;2.28;;;12.10;1.00;;;;;;5048618;28;20057;-72
2023/12/30 03:26:53;;;;;;;10.20;2.53;;;11.90;1.00;;;;;;5034967;28;20049;-73
2023/12/30 03:29:20;;;;;;;8.23;2.47;;;11.50;1.00;;;;;;5042953;28;20041;-76
2023/12/30 03:31:45;;;;;;;10.32;2.33;;;11.30;1.00;;;;;;5017915;28;20044;-71
2023/12/30 03:34:11;;;;;;;9.65;2.92;;;11.70;1.00;;;;;;5048666;28;20477;-75
2023/12/30 03:36:37;;;;;;;10.07;2.50;;;11.40;1.00;;;;;;5046723;28;20045;-71
2023/12/30 03:39:04;;;;;;;10.13;2.70;;;12.20;1.00;;;;;;5054685;28;20044;-73
2023/12/30 03:41:29;;;;;;;12.30;2.92;;;12.20;1.00;;;;;;5045954;28;20045;-74
2023/12/30 03:43:55;;;;;;;14.63;2.95;;;11.40;1.00;;;;;;5032361;28;20045;-73
2023/12/30 03:46:21;;;;;;;12.07;2.80;;;12.00;1.00;;;;;;5048520;28;20037;-76
2023/12/30 03:48:46;;;;;;;14.32;2.92;;;11.90;99.90;;;;;;5030270;28;20040;-76
2023/12/30 03:51:12;;;;;;;15.73;2.83;;;11.30;99.90;;;;;;5044562;28;20033;-71
2023/12/30 03:53:38;;;;;;;11.80;3.03;;;11.50;99.90;;;;;;5050722;28;20041;-72
2023/12/30 03:56:04;;;;;;;9.40;2.40;;;12.20;99.90;;;;;;5059134;28;20047;-73
2023/12/30 03:58:30;;;;;;;10.75;2.63;;;11.80;1.00;;;;;;5048283;28;20107;-75
2023/12/30 04:00:55;;;;;;;9.90;2.80;;;12.00;1.00;;;;;;5049471;28;20069;-72
2023/12/30 04:03:21;;;;;;;8.90;2.42;;;11.70;1.00;;;;;;5058702;28;20040;-74
2023/12/30 04:05:47;;;;;;;8.40;2.33;;;11.30;1.00;;;;;;5050499;28;20048;-74
2023/12/30 04:08:12;;;;;;;9.93;2.75;;;11.30;1.00;;;;;;5015157;28;20484;-71
2023/12/30 04:10:38;;;;;;;11.88;2.88;;;11.40;1.00;;;;;;5057596;28;20040;-71
2023/12/30 04:13:04;;;;;;;10.57;2.97;;;11.20;1.00;;;;;;5032109;28;20060;-74
2023/12/30 04:15:29;;;;;;;8.77;2.55;;;11.90;1.00;;;;;;5048523;28;20037;-71
2023/12/30 04:17:55;;;;;;;10.07;2.65;;;11.90;1.00;;;;;;5053742;28;20156;-75
2023/12/30 04:20:20;;;;;;;14.00;3.63;;;11.40;99.90;;;;;;5046097;28;20041;-70
2023/12/30 04:22:46;;;;;;;15.35;3.15;;;11.80;99.90;;;;;;5058252;28;20037;-74
2023/12/30 04:25:12;;;;;;;16.27;3.50;;;11.20;99.90;;;;;;5013762;28;20061;-72
2023/12/30 04:27:37;;;;;;;8.93;2.38;;;11.40;99.90;;;;;;5028780;28;20133;-73
2023/12/30 04:30:03;;;;;;;12.32;2.90;;;11.20;99.90;;;;;;5048302;28;20048;-75
2023/12/30 04:32:29;;;;;;;10.25;2.47;;;11.20;99.90;;;;;;5045283;28;20057;-74
2023/12/30 04:34:55;;;;;;;9.80;2.47;;;11.80;99.90;;;;;;5048371;28;20044;-71
2023/12/30 04:37:20;;;;;;;12.10;2.65;;;11.80;99.90;;;;;;5046645;28;20044;-73
2023/12/30 04:39:46;;;;;;;11.27;2.42;;;11.70;99.90;;;;;;5048895;28;20040;-73
2023/12/30 04:42:12;;;;;;;10.10;3.00;;;11.10;99.90;;;;;;5028530;28;20049;-73
2023/12/30 04:44:38;;;;;;;9.93;2.60;;;11.90;99.90;;;;;;5047471;28;20045;-73
2023/12/30 04:47:04;;;;;;;12.40;2.53;;;11.30;99.90;;;;;;5048819;28;20068;-78
2023/12/30 04:49:30;;;;;;;11.80;2.80;;;11.30;99.90;;;;;;5042455;28;20142;-75
2023/12/30 04:51:55;;;;;;;11.52;2.90;;;11.30;99.90;;;;;;5044470;28;20124;-74
2023/12/30 04:54:21;;;;;;;13.52;3.17;;;11.40;99.90;;;;;;5044692;28;20044;-71
2023/12/30 04:56:47;;;;;;;8.88;2.63;;;12.00;99.90;;;;;;5065151;28;20033;-75
2023/12/30 04:59:12;;;;;;;9.18;2.45;;;11.90;99.90;;;;;;5045686;28;20508;-76
2023/12/30 05:01:38;;;;;;;13.00;2.88;;;11.50;99.90;;;;;;5048352;28;20166;-72
2023/12/30 05:04:04;;;;;;;12.82;3.15;;;12.10;99.90;;;;;;5014126;28;20056;-73
2023/12/30 05:06:30;;;;;;;12.07;2.67;;;11.20;99.90;;;;;;5056911;28;20048;-74
2023/12/30 05:08:58;;;;;;;12.80;2.90;;;11.40;99.90;;;;;;5030120;28;20041;-73
2023/12/30 05:11:24;;;;;;;12.00;2.75;;;11.50;99.90;;;;;;5047962;28;20497;-73
2023/12/30 05:13:50;;;;;;;9.68;2.92;;;11.30;99.90;;;;;;5055394;28;20065;-75
2023/12/30 05:16:15;;;;;;;13.35;2.47;;;12.00;99.90;;;;;;5039855;28;20132;-76
2023/12/30 05:18:41;;;;;;;11.70;3.10;;;12.00;99.90;;;;;;5046914;28;20120;-72
2023/12/30 05:21:16;;;;;;;7.68;2.50;;;12.20;99.90;;;;;;5028981;28;20040;-77
2023/12/30 05:23:42;;;;;;;10.20;2.70;;;11.70;99.90;;;;;;5072091;28;20140;-73
2023/12/30 05:26:09;;;;;;;11.55;2.72;;;12.00;99.90;;;;;;5031422;28;20045;-72
2023/12/30 05:28:35;;;;;;;13.00;3.45;;;12.00;99.90;;;;;;5067845;28;20052;-72
2023/12/30 05:31:01;;;;;;;13.05;2.95;;;11.30;99.90;;;;;;5048381;28;20366;-74
2023/12/30 05:33:27;;;;;;;14.23;3.00;;;12.00;99.90;;;;;;5068383;28;20056;-73
2023/12/30 05:35:53;;;;;;;12.43;3.42;;;12.20;99.90;;;;;;5028900;28;20179;-73
2023/12/30 05:38:19;;;;;;;16.67;3.10;;;11.70;99.90;;;;;;5046038;28;20440;-72
2023/12/30 05:40:44;;;;;;;11.25;2.78;;;12.30;99.90;;;;;;5069390;28;20045;-71
2023/12/30 05:43:10;;;;;;;12.02;2.60;;;11.70;99.90;;;;;;5029574;28;20044;-70
2023/12/30 05:45:35;;;;;;;12.55;2.55;;;12.00;99.90;;;;;;5045805;28;20477;-74
2023/12/30 05:48:02;;;;;;;11.27;2.60;;;11.30;99.90;;;;;;5030871;28;20041;-70
2023/12/30 05:50:28;;;;;;;12.43;3.00;;;11.40;99.90;;;;;;5068479;28;20044;-74
2023/12/30 05:52:54;;;;;;;11.65;3.28;;;12.30;99.90;;;;;;5070847;28;20049;-75
2023/12/30 05:55:20;;;;;;;14.13;2.70;;;12.20;99.90;;;;;;5028341;28;20398;-76
2023/12/30 05:57:47;;;;;;;21.27;3.15;;;11.30;99.90;;;;;;5069643;28;20041;-78
2023/12/30 06:00:14;;;;;;;11.00;2.47;;;12.40;99.90;;;;;;5067820;28;20032;-74
2023/12/30 06:02:40;;;;;;;9.60;3.33;;;12.30;99.90;;;;;;5067623;28;20120;-74
2023/12/30 06:05:06;;;;;;;10.88;2.70;;;12.30;99.90;;;;;;5045238;28;20079;-71
2023/12/30 06:07:32;;;;;;;10.25;3.22;;;12.00;99.90;;;;;;5046314;28;20072;-72
2023/12/30 06:09:57;;;;;;;15.43;3.22;;;11.40;99.90;;;;;;5044621;28;20037;-75
2023/12/30 06:12:23;;;;;;;19.90;3.40;;;12.30;99.90;;;;;;5072119;28;20079;-73
2023/12/30 06:14:49;;;;;;;8.23;2.55;;;12.20;99.90;;;;;;5072166;28;20108;-72
2023/12/30 06:17:15;;;;;;;12.13;2.88;;;11.40;99.90;;;;;;5029249;28;20073;-71
2023/12/30 06:19:40;;;;;;;13.82;3.35;;;12.20;99.90;;;;;;5070949;28;20512;-75
2023/12/30 06:22:06;;;;;;;13.80;2.60;;;11.30;99.90;;;;;;5028650;28;20049;-71
2023/12/30 06:24:33;;;;;;;13.98;2.90;;;11.50;99.90;;;;;;5027617;28;20405;-76
2023/12/30 06:26:59;;;;;;;12.68;3.08;;;11.30;1.00;;;;;;5022427;28;20096;-75
2023/12/30 06:29:26;;;;;;;12.23;2.95;;;12.10;1.00;;;;;;5053279;28;20040;-73
2023/12/30 06:31:52;;;;;;;15.55;3.20;;;11.50;1.00;;;;;;5027051;28;20108;-73
2023/12/30 06:34:18;;;;;;;12.75;2.83;;;12.30;1.00;;;;;;5073689;28;20087;-71
2023/12/30 06:36:45;;;;;;;15.40;2.92;;;12.10;1.00;;;;;;5030018;28;20444;-75
2023/12/30 06:39:13;;;;;;;10.20;2.80;;;11.40;1.00;;;;;;5070325;28;20104;-73
2023/12/30 06:41:42;;;;;;;10.07;2.30;;;11.40;1.00;;;;;;5044921;28;20041;-76
2023/12/30 06:44:08;;;;;;;16.50;3.42;;;11.70;1.00;;;;;;5029266;28;20480;-73
2023/12/30 06:46:34;;;;;;;14.35;2.80;;;11.50;1.00;;;;;;5046229;28;20099;-76
2023/12/30 06:49:00;;;;;;;13.23;2.80;;;11.30;1.00;;;;;;5046683;28;20373;-72
2023/12/30 06:51:27;;;;;;;13.07;3.28;;;11.70;1.00;;;;;;5041310;28;20410;-72
2023/12/30 06:53:53;;;;;;;11.07;3.10;;;11.40;1.00;;;;;;5070011;28;20045;-73
2023/12/30 06:56:19;;;;;;;10.13;2.97;;;12.00;1.00;;;;;;5068087;28;20041;-75
2023/12/30 06:58:45;;;;;;;13.27;3.38;;;11.70;99.90;;;;;;5055940;28;20048;-74
2023/12/30 07:01:14;;;;;;;13.77;3.83;;;12.00;1.00;;;;;;5046071;28;20043;-72
2023/12/30 07:03:40;;;;;;;15.23;3.38;;;12.00;1.00;;;;;;5045293;28;20045;-73
2023/12/30 07:06:06;;;;;;;14.85;2.95;;;11.90;1.00;;;;;;5046776;28;20366;-71
2023/12/30 07:08:32;;;;;;;9.77;2.72;;;12.00;1.00;;;;;;5043144;28;20481;-73
2023/12/30 07:10:58;;;;;;;15.40;3.55;;;11.30;1.00;;;;;;5073351;28;20146;-75
2023/12/30 07:13:23;;;;;;;13.02;2.90;;;11.90;1.00;;;;;;5031247;28;20548;-71
2023/12/30 07:15:50;;;;;;;14.00;3.40;;;11.90;1.00;;;;;;5047564;28;20040;-74
2023/12/30 07:18:17;;;;;;;14.18;3.65;;;11.20;1.00;;;;;;5073361;28;20037;-73
2023/12/30 07:20:43;;;;;;;16.50;3.85;;;11.40;1.00;;;;;;5032233;28;20065;-71
2023/12/30 07:23:09;;;;;;;16.85;3.10;;;11.80;1.00;;;;;;5048415;28;20501;-73
2023/12/30 07:25:35;;;;;;;11.23;2.72;;;11.90;1.00;;;;;;5074031;28;20056;-71
2023/12/30 07:28:00;;;;;;;10.50;3.20;;;11.20;1.00;;;;;;5049238;28;20060;-72
2023/12/30 07:30:26;;;;;;;13.70;3.15;;;11.20;1.00;;;;;;5053569;28;20033;-71
2023/12/30 07:32:52;;;;;;;11.75;2.80;;;12.10;1.00;;;;;;5047324;28;20471;-72
2023/12/30 07:35:18;;;;;;;10.43;2.58;;;11.20;1.00;;;;;;5073506;28;20041;-71
2023/12/30 07:37:46;;;;;;;13.35;2.67;;;11.60;1.00;;;;;;5049700;28;20037;-74
2023/12/30 07:40:12;;;;;;;12.93;3.00;;;12.20;1.00;;;;;;5040698;28;20033;-73
2023/12/30 07:42:37;;;;;;;11.02;3.30;;;12.10;1.00;;;;;;5046834;28;20476;-73
2023/12/30 07:45:06;;;;;;;12.45;3.10;;;11.80;1.00;;;;;;5012538;28;20102;-76
2023/12/30 07:47:32;;;;;;;13.85;2.95;;;12.10;1.00;;;;;;5047038;28;20049;-76
2023/12/30 07:49:58;;;;;;;13.65;2.97;;;12.00;1.00;;;;;;5060948;28;20069;-72
2023/12/30 07:52:24;;;;;;;12.60;3.00;;;11.90;1.00;;;;;;5050394;28;20072;-71
2023/12/30 07:54:49;;;;;;;8.95;3.35;;;11.30;1.00;;;;;;5047694;28;20052;-75
2023/12/30 07:57:15;;;;;;;10.52;2.42;;;11.70;1.00;;;;;;5058881;28;20037;-71
2023/12/30 07:59:41;;;;;;;13.52;3.50;;;11.80;1.00;;;;;;5051554;28;20068;-72
2023/12/30 08:02:07;;;;;;;13.90;3.17;;;12.10;1.00;;;;;;5017483;28;20075;-73
2023/12/30 08:04:33;;;;;;;9.52;2.80;;;12.10;1.00;;;;;;5075729;28;20386;-72
2023/12/30 08:06:58;;;;;;;10.73;2.58;;;11.40;1.00;;;;;;5048722;28;20044;-72
2023/12/30 08:09:24;;;;;;;14.65;4.82;;;11.70;1.00;;;;;;5070385;28;20034;-77
2023/12/30 08:11:50;;;;;;;13.55;3.72;;;11.40;1.00;;;;;;5080282;28;20045;-72
2023/12/30 08:14:17;;;;;;;13.02;3.30;;;11.40;1.00;;;;;;5033541;28;20072;-71
2023/12/30 08:16:43;;;;;;;9.35;2.60;;;12.00;1.00;;;;;;5073508;28;20397;-77
2023/12/30 08:19:09;;;;;;;10.07;2.42;;;12.10;1.00;;;;;;5041005;28;20045;-72
2023/12/30 08:21:34;;;;;;;15.00;3.97;;;11.60;1.00;;;;;;5041507;28;20530;-70
2023/12/30 08:24:01;;;;;;;11.88;3.28;;;12.30;1.00;;;;;;5040051;28;20060;-78
2023/12/30 08:26:27;;;;;;;8.32;2.50;;;11.90;1.00;;;;;;5061952;28;20166;-74
2023/12/30 08:28:55;;;;;;;7.82;2.72;;;11.60;1.00;;;;;;5042133;28;20057;-77
2023/12/30 08:31:21;;;;;;;11.15;2.88;;;11.60;1.00;;;;;;5041607;28;20132;-76
2023/12/30 08:33:48;;;;;;;10.00;2.70;;;12.30;1.00;;;;;;5047578;28;20041;-77
2023/12/30 08:36:14;;;;;;;12.40;3.00;;;12.20;99.90;;;;;;5022928;28;20037;-79
2023/12/30 08:38:40;;;;;;;12.95;2.75;;;12.10;99.90;;;;;;5060101;28;20404;-71
2023/12/30 08:41:09;;;;;;;14.07;4.38;;;12.40;99.90;;;;;;5050505;28;20044;-76
2023/12/30 08:43:36;;;;;;;9.35;3.10;;;11.90;99.90;;;;;;5051089;28;20044;-76
2023/12/30 08:46:02;;;;;;;12.88;3.00;;;12.30;99.90;;;;;;5031028;28;20072;-76
2023/12/30 08:48:27;;;;;;;12.07;2.72;;;12.50;99.90;;;;;;5077842;28;20063;-79
2023/12/30 08:50:53;;;;;;;12.60;2.97;;;12.40;99.90;;;;;;5048977;28;20039;-72
2023/12/30 08:53:24;;;;;;;10.93;2.83;;;11.90;99.90;;;;;;5049705;28;20046;-76
2023/12/30 08:55:51;;;;;;;12.00;2.88;;;12.10;99.90;;;;;;5069279;28;20107;-77
2023/12/30 08:58:17;;;;;;;11.45;3.28;;;12.40;99.90;;;;;;5057922;28;20039;-76
2023/12/30 09:00:42;;;;;;;10.73;2.85;;;11.80;99.90;;;;;;5015382;28;20041;-73
2023/12/30 09:03:08;;;;;;;9.85;2.45;;;11.90;99.90;;;;;;5049083;28;20064;-74
2023/12/30 09:05:34;;;;;;;9.95;2.83;;;12.50;99.90;;;;;;5032519;28;20043;-74
2023/12/30 09:08:02;;;;;;;10.10;2.25;;;11.60;99.90;;;;;;5050493;28;20116;-78
2023/12/30 09:10:27;;;;;;;13.02;2.53;;;11.90;99.90;;;;;;5074018;28;20098;-75
2023/12/30 09:12:53;;;;;;;13.32;3.30;;;12.00;99.90;;;;;;5048310;28;20037;-76
2023/12/30 09:15:19;;;;;;;8.75;2.80;;;12.00;99.90;;;;;;5030017;28;20064;-77
2023/12/30 09:17:45;;;;;;;14.75;2.75;;;12.20;99.90;;;;;;5048308;28;20500;-79
2023/12/30 09:20:10;;;;;;;14.30;3.38;;;11.90;99.90;;;;;;5059671;28;20552;-76
2023/12/30 09:22:36;;;;;;;8.73;2.58;;;12.60;99.90;;;;;;5048415;28;20112;-79
2023/12/30 09:25:02;;;;;;;10.25;2.72;;;12.10;99.90;;;;;;5049006;28;20100;-75
2023/12/30 09:27:27;;;;;;;10.63;2.75;;;12.00;99.90;;;;;;5028447;28;20064;-75
2023/12/30 09:29:53;;;;;;;14.32;2.83;;;12.20;99.90;;;;;;5033166;28;20041;-76
2023/12/30 09:32:19;;;;;;;10.25;2.60;;;12.90;99.90;;;;;;5047399;28;20482;-73
2023/12/30 09:34:44;;;;;;;10.20;2.78;;;12.70;99.90;;;;;;5032949;28;20074;-77
2023/12/30 09:37:11;;;;;;;10.57;2.67;;;12.70;99.90;;;;;;5049984;28;20075;-79
2023/12/30 09:39:36;;;;;;;10.15;3.47;;;12.80;99.90;;;;;;5043054;28;20041;-78
2023/12/30 09:42:02;;;;;;;11.77;4.25;;;13.00;99.90;;;;;;5032733;28;20044;-77
2023/12/30 09:44:30;;;;;;;12.68;2.92;;;13.30;99.90;;;;;;5032772;28;20040;-83
2023/12/30 09:46:56;;;;;;;10.98;3.60;;;13.40;99.90;;;;;;5058968;28;20048;-79
2023/12/30 09:49:22;;;;;;;14.70;3.05;;;13.00;99.90;;;;;;5055865;28;20401;-80
2023/12/30 09:51:48;;;;;;;11.70;3.42;;;13.60;99.90;;;;;;5050051;28;20045;-78
2023/12/30 09:54:14;;;;;;;12.57;2.80;;;12.90;99.90;;;;;;5056218;28;20029;-79
2023/12/30 09:56:43;;;;;;;8.27;2.75;;;13.60;99.90;;;;;;4999048;28;20033;-79
2023/12/30 09:59:09;;;;;;;11.50;2.88;;;13.10;99.90;;;;;;5048443;28;20043;-78
2023/12/30 10:01:35;;;;;;;9.43;2.60;;;13.10;99.90;;;;;;5070570;28;20496;-82
2023/12/30 10:04:03;;;;;;;10.35;2.53;;;13.30;99.90;;;;;;5011310;28;20124;-78
2023/12/30 10:06:29;;;;;;;10.63;3.17;;;13.20;99.90;;;;;;5032011;28;20056;-83
2023/12/30 10:08:55;;;;;;;11.57;2.78;;;13.90;88.40;;;;;;5073984;28;20047;-77
2023/12/30 10:11:20;;;;;;;11.20;3.03;;;13.90;99.80;;;;;;5049315;28;20052;-77
2023/12/30 10:13:46;;;;;;;11.10;2.80;;;13.60;67.80;;;;;;5055043;28;20397;-76
2023/12/30 10:16:12;;;;;;;6.88;2.28;;;13.50;93.00;;;;;;5052132;28;20037;-75
2023/12/30 10:18:39;;;;;;;8.57;2.50;;;13.40;75.00;;;;;;5055960;28;20049;-78
2023/12/30 10:21:06;;;;;;;9.27;2.97;;;13.80;22.90;;;;;;5074173;28;20068;-77
2023/12/30 10:23:33;;;;;;;11.07;2.65;;;13.90;31.20;;;;;;5030334;28;20033;-76
2023/12/30 10:26:03;;;;;;;8.90;2.47;;;14.40;56.50;;;;;;5031558;28;20132;-75
2023/12/30 10:28:30;;;;;;;8.60;2.53;;;14.30;1.00;;;;;;5048473;28;20041;-77
2023/12/30 10:31:06;;;;;;;11.30;2.53;;;14.70;25.00;;;;;;5042476;28;20768;-75
2023/12/30 10:33:33;;;;;;;9.05;2.20;;;14.20;1.00;;;;;;5048043;28;20041;-80
2023/12/30 10:35:59;;;;;;;6.65;2.33;;;14.00;1.00;;;;;;5045637;28;20039;-75
2023/12/30 10:38:26;;;;;;;8.02;2.30;;;14.60;1.00;;;;;;5048240;28;20393;-79
2023/12/30 10:40:52;;;;;;;6.45;1.95;;;14.10;1.00;;;;;;5031304;28;20052;-79
2023/12/30 10:43:21;;;;;;;11.18;2.80;;;14.00;1.00;;;;;;5045944;28;20033;-77
2023/12/30 10:45:58;;;;;;;8.00;2.05;;;14.70;1.00;;;;;;5052166;28;20384;-80
2023/12/30 10:48:30;;;;;;;8.65;2.38;;;14.60;1.00;;;;;;5049442;28;20037;-76
2023/12/30 10:50:57;;;;;;;7.60;2.25;;;14.50;1.00;;;;;;5051649;28;20032;-78
2023/12/30 10:53:31;;;;;;;10.30;2.35;;;14.90;1.00;;;;;;5050057;28;20041;-81
2023/12/30 10:56:03;;;;;;;4.80;1.77;;;15.30;1.00;;;;;;5051426;28;20041;-76
2023/12/30 10:58:40;;;;;;;9.23;2.63;;;15.10;1.00;;;;;;5050169;28;20109;-77
2023/12/30 11:01:06;;;;;;;8.05;2.08;;;14.50;1.00;;;;;;5034322;28;20032;-76
2023/12/30 11:03:33;;;;;;;10.93;2.78;;;14.90;1.00;;;;;;5030965;28;20047;-77
2023/12/30 11:06:10;;;;;;;5.22;1.90;;;14.90;1.00;;;;;;5045134;28;20025;-78
2023/12/30 11:08:36;;;;;;;9.45;2.22;;;14.60;1.00;;;;;;5050230;28;20374;-77
2023/12/30 11:11:04;;;;;;;10.43;2.55;;;14.40;1.00;;;;;;5050243;28;20067;-78
2023/12/30 11:13:35;;;;;;;13.32;2.97;;;14.80;1.00;;;;;;5022575;28;20137;-76
2023/12/30 11:16:19;;;;;;;10.52;2.30;;;14.80;1.00;;;;;;5025244;28;20038;-78
2023/12/30 11:18:53;;;;;;;6.10;2.03;;;14.80;1.00;;;;;;5051067;28;20038;-75
2023/12/30 11:21:43;;;;;;;8.02;2.33;;;14.90;1.00;;;;;;5051752;28;20041;-76
2023/12/30 11:24:10;;;;;;;7.45;1.90;;;14.40;1.00;;;;;;5039335;28;20056;-78
2023/12/30 11:26:41;;;;;;;8.27;2.28;;;14.30;1.00;;;;;;5080926;28;20037;-74
2023/12/30 11:29:12;;;;;;;9.95;2.92;;;14.70;1.00;;;;;;5050399;28;20036;-78
2023/12/30 11:31:41;;;;;;;13.38;3.20;;;14.60;1.00;;;;;;5039927;28;20048;-74
2023/12/30 11:34:07;;;;;;;8.23;2.30;;;14.50;1.00;;;;;;5046482;28;20052;-77
2023/12/30 11:36:32;;;;;;;10.45;2.65;;;14.30;1.20;;;;;;5026615;28;20037;-79
2023/12/30 11:39:00;;;;;;;8.02;2.28;;;14.20;20.80;;;;;;5071446;28;20040;-78
2023/12/30 11:41:27;;;;;;;10.10;3.00;;;13.80;25.40;;;;;;5018435;28;20772;-78
2023/12/30 11:43:58;;;;;;;8.82;3.25;;;13.70;22.40;;;;;;5037015;28;20069;-77
2023/12/30 11:46:28;;;;;;;6.32;2.58;;;13.90;26.80;;;;;;5042568;28;20060;-76
2023/12/30 11:48:56;;;;;;;12.57;2.90;;;13.80;16.90;;;;;;5075709;28;20055;-77
2023/12/30 11:51:26;;;;;;;11.55;3.42;;;13.60;25.10;;;;;;5050253;28;20056;-76
2023/12/30 11:53:53;;;;;;;7.72;2.70;;;13.50;27.10;;;;;;5030257;28;20045;-77
2023/12/30 11:56:19;;;;;;;8.52;2.65;;;14.00;42.50;;;;;;5028645;28;20516;-78
2023/12/30 11:58:46;;;;;;;9.07;2.53;;;13.70;54.60;;;;;;5045873;28;20447;-76
2023/12/30 12:01:12;;;;;;;9.20;2.58;;;13.80;64.20;;;;;;5045841;28;20064;-76
2023/12/30 12:03:39;;;;;;;8.38;2.33;;;13.80;63.30;;;;;;5048862;28;20029;-74
2023/12/30 12:06:06;;;;;;;10.30;2.20;;;14.20;59.10;;;;;;5034373;28;20044;-81
2023/12/30 12:08:32;;;;;;;9.73;2.50;;;14.40;32.30;;;;;;5033670;28;20029;-76
2023/12/30 12:10:58;;;;;;;13.90;3.33;;;14.00;33.80;;;;;;5034966;28;20489;-76
2023/12/30 12:13:25;;;;;;;8.30;2.80;;;14.10;7.40;;;;;;5046399;28;20045;-78
2023/12/30 12:15:52;;;;;;;8.73;2.58;;;14.10;1.00;;;;;;5032618;28;20520;-79
2023/12/30 12:18:18;;;;;;;7.63;2.63;;;14.10;35.80;;;;;;5051144;28;20054;-80
2023/12/30 12:20:45;;;;;;;6.97;1.95;;;13.80;32.40;;;;;;5033776;28;20037;-80
2023/12/30 12:23:11;;;;;;;8.50;2.40;;;13.80;44.00;;;;;;5078040;28;20124;-75
2023/12/30 12:25:37;;;;;;;9.52;2.88;;;13.30;42.40;;;;;;5052826;28;20135;-79
2023/12/30 12:28:15;;;;;;;11.18;2.92;;;13.50;53.60;;;;;;5061981;28;20086;-81
2023/12/30 12:30:41;;;;;;;9.43;2.15;;;13.40;71.90;;;;;;5025923;28;20110;-78
2023/12/30 12:33:08;;;;;;;9.40;2.38;;;13.60;80.80;;;;;;5024010;28;20433;-76
2023/12/30 12:35:34;;;;;;;9.13;2.42;;;13.20;90.70;;;;;;5023659;28;20512;-82
2023/12/30 12:38:01;;;;;;;10.32;2.75;;;13.50;97.20;;;;;;5051183;28;20463;-75
2023/12/30 12:40:27;;;;;;;10.52;2.67;;;13.20;94.90;;;;;;5037368;28;20462;-81